createdAt,value
2022-11-05T00:01:44.918Z,0.90
2022-11-05T00:04:31.317Z,0.98
2022-11-05T00:07:19.620Z,0.98
2022-11-05T00:09:47.678Z,1.00
2022-11-05T00:12:33.808Z,1.00
2022-11-05T00:15:19.756Z,1.38
2022-11-05T00:17:46.942Z,1.77
2022-11-05T00:20:14.228Z,2.08
2022-11-05T00:23:00.101Z,2.38
2022-11-05T00:25:29.854Z,2.50
2022-11-05T00:28:00.847Z,2.45
2022-11-05T00:30:28.042Z,1.80
2022-11-05T00:32:55.266Z,1.60
2022-11-05T00:35:23.207Z,1.10
2022-11-05T00:37:50.835Z,1.02
2022-11-05T00:40:18.203Z,0.80
2022-11-05T00:43:04.147Z,1.00
2022-11-05T00:45:31.504Z,0.90
2022-11-05T00:48:17.542Z,1.00
2022-11-05T00:50:44.738Z,0.50
2022-11-05T00:53:12.163Z,0.70
2022-11-05T00:55:44.791Z,0.70
2022-11-05T00:58:16.192Z,0.60
2022-11-05T01:00:50.262Z,0.77
2022-11-05T01:03:18.710Z,0.70
2022-11-05T01:05:50.731Z,1.15
2022-11-05T01:08:19.472Z,0.80
2022-11-05T01:10:47.999Z,0.60
2022-11-05T01:13:17.328Z,0.68
2022-11-05T01:15:45.243Z,0.60
2022-11-05T01:18:12.650Z,0.55
2022-11-05T01:20:40.112Z,0.50
2022-11-05T01:23:12.981Z,0.70
2022-11-05T01:25:41.149Z,0.60
2022-11-05T01:28:09.562Z,0.70
2022-11-05T01:30:37.385Z,0.60
2022-11-05T01:33:04.926Z,0.60
2022-11-05T01:35:32.152Z,0.50
2022-11-05T01:37:59.463Z,0.50
2022-11-05T01:40:26.961Z,0.50
2022-11-05T01:42:54.164Z,0.77
2022-11-05T01:45:21.365Z,0.52
2022-11-05T01:47:48.537Z,0.50
2022-11-05T01:50:24.834Z,1.05
2022-11-05T01:52:54.183Z,0.68
2022-11-05T01:55:24.462Z,0.57
2022-11-05T01:57:53.170Z,0.90
2022-11-05T02:00:20.446Z,0.63
2022-11-05T02:02:47.932Z,0.68
2022-11-05T02:05:16.095Z,0.65
2022-11-05T02:07:44.955Z,1.00
2022-11-05T02:10:14.083Z,0.82
2022-11-05T02:12:43.456Z,0.80
2022-11-05T02:15:12.746Z,0.50
2022-11-05T02:17:42.756Z,0.60
2022-11-05T02:20:18.861Z,0.60
2022-11-05T02:22:46.010Z,0.60
2022-11-05T02:25:39.795Z,0.60
2022-11-05T02:28:16.136Z,0.50
2022-11-05T02:30:43.363Z,0.77
2022-11-05T02:33:14.082Z,0.47
2022-11-05T02:35:44.468Z,0.75
2022-11-05T02:38:18.904Z,1.02
2022-11-05T02:41:05.620Z,0.57
2022-11-05T02:43:35.538Z,0.60
2022-11-05T02:46:16.258Z,0.52
2022-11-05T02:48:51.517Z,0.50
2022-11-05T02:51:23.130Z,0.50
2022-11-05T02:53:50.299Z,0.70
2022-11-05T02:56:26.234Z,0.80
2022-11-05T02:58:53.459Z,0.65
2022-11-05T03:01:20.771Z,0.68
2022-11-05T03:03:49.421Z,0.80
2022-11-05T03:06:34.726Z,1.00
2022-11-05T03:09:20.915Z,1.00
2022-11-05T03:12:14.389Z,1.25
2022-11-05T03:14:58.978Z,2.25
2022-11-05T03:17:31.936Z,1.77
2022-11-05T03:20:08.657Z,1.13
2022-11-05T03:22:39.606Z,1.30
2022-11-05T03:25:11.717Z,1.40
2022-11-05T03:27:40.829Z,1.45
2022-11-05T03:30:10.068Z,1.38
2022-11-05T03:32:39.807Z,1.23
2022-11-05T03:35:11.568Z,1.50
2022-11-05T03:37:40.517Z,2.70
2022-11-05T03:40:09.264Z,1.50
2022-11-05T03:42:37.910Z,1.50
2022-11-05T03:45:15.550Z,1.33
2022-11-05T03:47:44.593Z,2.22
2022-11-05T03:50:14.803Z,1.50
2022-11-05T03:52:48.595Z,1.40
2022-11-05T03:55:16.260Z,1.42
2022-11-05T03:57:47.076Z,1.50
2022-11-05T04:00:14.498Z,1.15
2022-11-05T04:02:42.362Z,1.00
2022-11-05T04:05:09.964Z,1.63
2022-11-05T04:07:55.771Z,1.45
2022-11-05T04:10:41.690Z,1.73
2022-11-05T04:13:27.651Z,1.33
2022-11-05T04:16:14.766Z,1.65
2022-11-05T04:18:42.709Z,1.63
2022-11-05T04:21:29.246Z,1.70
2022-11-05T04:24:08.969Z,1.48
2022-11-05T04:26:40.170Z,1.85
2022-11-05T04:29:26.523Z,1.65
2022-11-05T04:31:53.771Z,1.60
2022-11-05T04:34:22.145Z,2.25
2022-11-05T04:36:53.193Z,1.63
2022-11-05T04:39:21.067Z,2.03
2022-11-05T04:41:48.776Z,1.50
2022-11-05T04:44:16.753Z,2.00
2022-11-05T04:46:44.336Z,1.58
2022-11-05T04:49:11.571Z,2.33
2022-11-05T04:51:38.769Z,1.70
2022-11-05T04:54:06.142Z,1.60
2022-11-05T04:56:33.511Z,1.40
2022-11-05T04:59:00.736Z,1.27
2022-11-05T05:01:28.140Z,1.80
2022-11-05T05:03:55.482Z,1.27
2022-11-05T05:06:22.999Z,1.52
2022-11-05T05:08:50.751Z,1.17
2022-11-05T05:11:19.126Z,1.30
2022-11-05T05:13:46.627Z,1.10
2022-11-05T05:16:24.252Z,1.02
2022-11-05T05:18:51.990Z,1.00
2022-11-05T05:21:38.799Z,0.65
2022-11-05T05:24:08.598Z,0.82
2022-11-05T05:26:36.865Z,0.90
2022-11-05T05:29:04.907Z,0.90
2022-11-05T05:31:32.279Z,1.42
2022-11-05T05:33:59.564Z,0.90
2022-11-05T05:36:26.886Z,0.88
2022-11-05T05:38:54.360Z,1.15
2022-11-05T05:41:21.718Z,0.73
2022-11-05T05:43:48.934Z,0.70
2022-11-05T05:46:17.297Z,0.70
2022-11-05T05:48:48.814Z,0.60
2022-11-05T05:51:16.101Z,0.63
2022-11-05T05:53:43.315Z,0.52
2022-11-05T05:56:11.057Z,0.80
2022-11-05T05:58:39.500Z,0.90
2022-11-05T06:01:14.257Z,0.70
2022-11-05T06:03:45.853Z,0.85
2022-11-05T06:06:14.070Z,0.90
2022-11-05T06:08:41.566Z,0.55
2022-11-05T06:11:09.268Z,0.60
2022-11-05T06:13:37.151Z,0.70
2022-11-05T06:16:05.399Z,0.60
2022-11-05T06:18:33.120Z,0.60
2022-11-05T06:21:04.077Z,0.70
2022-11-05T06:23:33.232Z,0.70
2022-11-05T06:26:01.410Z,0.55
2022-11-05T06:28:29.575Z,0.80
2022-11-05T06:30:57.487Z,0.90
2022-11-05T06:33:24.912Z,0.90
2022-11-05T06:35:52.522Z,0.70
2022-11-05T06:38:20.011Z,0.70
2022-11-05T06:40:47.198Z,1.13
2022-11-05T06:43:14.657Z,0.70
2022-11-05T06:45:42.051Z,1.33
2022-11-05T06:48:09.381Z,1.00
2022-11-05T06:50:36.575Z,1.00
2022-11-05T06:53:05.306Z,0.82
2022-11-05T06:55:32.600Z,0.70
2022-11-05T06:58:00.083Z,0.80
2022-11-05T07:00:27.601Z,0.90
2022-11-05T07:02:56.807Z,1.27
2022-11-05T07:05:24.253Z,0.90
2022-11-05T07:07:51.529Z,0.60
2022-11-05T07:10:19.656Z,0.63
2022-11-05T07:12:46.956Z,0.90
2022-11-05T07:15:14.213Z,0.80
2022-11-05T07:17:41.435Z,0.93
2022-11-05T07:20:09.245Z,1.00
2022-11-05T07:22:36.724Z,0.80
2022-11-05T07:25:04.323Z,0.60
2022-11-05T07:27:31.684Z,0.73
2022-11-05T07:29:58.955Z,0.70
2022-11-05T07:32:26.173Z,0.80
2022-11-05T07:34:53.418Z,0.90
2022-11-05T07:37:20.652Z,1.15
2022-11-05T07:39:47.846Z,1.08
2022-11-05T07:42:15.159Z,0.80
2022-11-05T07:44:42.516Z,1.17
2022-11-05T07:47:09.725Z,1.45
2022-11-05T07:49:36.922Z,2.63
2022-11-05T07:52:04.147Z,2.10
2022-11-05T07:54:31.399Z,1.77
2022-11-05T07:56:58.710Z,1.20
2022-11-05T07:59:25.905Z,1.00
2022-11-05T08:01:53.230Z,0.95
2022-11-05T08:04:20.960Z,0.40
2022-11-05T08:06:48.137Z,0.50
2022-11-05T08:09:15.344Z,0.60
2022-11-05T08:11:42.544Z,0.50
2022-11-05T08:14:09.794Z,0.40
2022-11-05T08:16:37.116Z,0.60
2022-11-05T08:19:04.717Z,0.30
2022-11-05T08:21:31.891Z,0.68
2022-11-05T08:23:59.135Z,0.40
2022-11-05T08:26:26.384Z,0.57
2022-11-05T08:28:53.616Z,0.40
2022-11-05T08:31:20.815Z,0.30
2022-11-05T08:33:48.163Z,0.88
2022-11-05T08:36:15.439Z,1.27
2022-11-05T08:38:42.667Z,0.43
2022-11-05T08:41:09.840Z,0.40
2022-11-05T08:43:37.197Z,0.40
2022-11-05T08:46:04.413Z,0.90
2022-11-05T08:48:31.606Z,0.50
2022-11-05T08:51:00.880Z,0.30
2022-11-05T08:53:28.120Z,0.65
2022-11-05T08:55:58.330Z,0.30
2022-11-05T08:58:25.820Z,0.80
2022-11-05T09:00:53.088Z,0.30
2022-11-05T09:03:20.663Z,0.60
2022-11-05T09:05:47.888Z,0.60
2022-11-05T09:08:16.682Z,0.40
2022-11-05T09:10:44.311Z,0.40
2022-11-05T09:13:18.240Z,0.10
2022-11-05T09:15:47.200Z,0.50
2022-11-05T09:18:14.728Z,0.30
2022-11-05T09:20:41.967Z,0.35
2022-11-05T09:23:09.727Z,0.30
2022-11-05T09:25:37.197Z,0.32
2022-11-05T09:28:18.424Z,0.40
2022-11-05T09:30:47.479Z,0.50
2022-11-05T09:33:15.082Z,0.80
2022-11-05T09:35:42.641Z,0.22
2022-11-05T09:38:10.069Z,0.43
2022-11-05T09:40:48.097Z,0.50
2022-11-05T09:43:27.355Z,0.52
2022-11-05T09:46:01.052Z,0.43
2022-11-05T09:48:29.951Z,0.40
2022-11-05T09:50:58.229Z,0.47
2022-11-05T09:53:25.790Z,0.50
2022-11-05T09:55:55.759Z,0.40
2022-11-05T09:58:30.125Z,0.60
2022-11-05T10:00:58.355Z,0.57
2022-11-05T10:03:27.098Z,0.45
2022-11-05T10:05:55.628Z,0.35
2022-11-05T10:08:24.239Z,0.20
2022-11-05T10:10:51.446Z,0.40
2022-11-05T10:13:35.615Z,0.70
2022-11-05T10:16:12.227Z,0.30
2022-11-05T10:18:43.619Z,0.50
2022-11-05T10:21:17.100Z,0.90
2022-11-05T10:23:45.273Z,0.73
2022-11-05T10:26:14.681Z,0.75
2022-11-05T10:28:41.957Z,0.68
2022-11-05T10:31:10.732Z,0.47
2022-11-05T10:33:50.296Z,1.15
2022-11-05T10:36:20.329Z,0.60
2022-11-05T10:38:47.636Z,0.30
2022-11-05T10:41:27.536Z,0.40
2022-11-05T10:44:18.852Z,0.38
2022-11-05T10:46:46.331Z,0.50
2022-11-05T10:49:32.087Z,0.35
2022-11-05T10:52:01.022Z,0.43
2022-11-05T10:54:32.689Z,0.38
2022-11-05T10:56:59.967Z,0.65
2022-11-05T10:59:28.276Z,0.50
2022-11-05T11:02:04.158Z,0.57
2022-11-05T11:04:37.433Z,0.70
2022-11-05T11:07:05.050Z,0.50
2022-11-05T11:09:33.650Z,0.70
2022-11-05T11:12:03.488Z,0.50
2022-11-05T11:14:31.029Z,0.77
2022-11-05T11:17:16.614Z,0.50
2022-11-05T11:19:43.787Z,0.85
2022-11-05T11:22:14.878Z,0.40
2022-11-05T11:24:47.693Z,0.52
2022-11-05T11:27:17.375Z,0.68
2022-11-05T11:29:49.320Z,0.57
2022-11-05T11:32:17.909Z,0.52
2022-11-05T11:34:47.459Z,0.60
2022-11-05T11:37:19.799Z,0.80
2022-11-05T11:39:51.854Z,0.68
2022-11-05T11:42:30.397Z,1.00
2022-11-05T11:44:59.150Z,1.33
2022-11-05T11:47:27.645Z,0.95
2022-11-05T11:49:55.797Z,0.65
2022-11-05T11:52:33.321Z,0.70
2022-11-05T11:55:12.772Z,0.40
2022-11-05T11:57:44.790Z,0.93
2022-11-05T12:00:12.594Z,0.73
2022-11-05T12:02:56.012Z,0.57
2022-11-05T12:05:35.986Z,0.60
2022-11-05T12:08:21.480Z,0.82
2022-11-05T12:10:48.625Z,1.00
2022-11-05T12:13:21.703Z,0.90
2022-11-05T12:16:18.202Z,1.10
2022-11-05T12:18:49.821Z,1.10
2022-11-05T12:21:40.680Z,1.27
2022-11-05T12:24:14.928Z,1.05
2022-11-05T12:26:51.453Z,1.48
2022-11-05T12:29:48.042Z,1.20
2022-11-05T12:32:33.854Z,0.60
2022-11-05T12:35:04.133Z,0.75
2022-11-05T12:37:34.667Z,0.55
2022-11-05T12:40:20.875Z,0.60
2022-11-05T12:42:51.254Z,1.40
2022-11-05T12:45:21.615Z,0.80
2022-11-05T12:48:12.156Z,0.95
2022-11-05T12:50:47.077Z,0.60
2022-11-05T12:53:14.515Z,0.50
2022-11-05T12:55:48.248Z,0.57
2022-11-05T12:58:23.271Z,1.35
2022-11-05T13:00:53.655Z,0.90
2022-11-05T13:03:39.604Z,0.80
2022-11-05T13:06:11.291Z,1.50
2022-11-05T13:08:47.886Z,0.88
2022-11-05T13:11:28.335Z,1.20
2022-11-05T13:13:58.773Z,1.10
2022-11-05T13:16:40.258Z,1.63
2022-11-05T13:19:07.447Z,0.95
2022-11-05T13:21:35.818Z,1.63
2022-11-05T13:24:06.716Z,1.63
2022-11-05T13:26:46.195Z,1.02
2022-11-05T13:29:16.915Z,1.05
2022-11-05T13:31:57.747Z,1.40
2022-11-05T13:34:24.935Z,1.77
2022-11-05T13:37:21.469Z,0.98
2022-11-05T13:40:02.173Z,1.92
2022-11-05T13:42:44.559Z,1.83
2022-11-05T13:45:14.588Z,1.60
2022-11-05T13:47:51.186Z,1.00
2022-11-05T13:50:36.994Z,1.38
2022-11-05T13:53:15.447Z,1.20
2022-11-05T13:55:57.682Z,1.83
2022-11-05T13:58:30.879Z,2.05
2022-11-05T14:01:17.232Z,1.17
2022-11-05T14:03:49.138Z,1.15
2022-11-05T14:06:23.304Z,1.63
2022-11-05T14:08:50.521Z,0.80
2022-11-05T14:11:23.051Z,1.55
2022-11-05T14:13:52.183Z,1.05
2022-11-05T14:16:21.153Z,1.00
2022-11-05T14:18:53.347Z,0.88
2022-11-05T14:21:26.371Z,1.02
2022-11-05T14:23:58.160Z,1.23
2022-11-05T14:26:26.513Z,1.47
2022-11-05T14:28:59.803Z,1.38
2022-11-05T14:32:02.663Z,1.40
2022-11-05T14:34:17.080Z,1.00
2022-11-05T14:36:45.640Z,1.00
2022-11-05T14:39:14.569Z,0.90
2022-11-05T14:42:00.065Z,1.00
2022-11-05T14:44:27.725Z,0.75
2022-11-05T14:46:59.523Z,0.90
2022-11-05T14:49:29.341Z,0.80
2022-11-05T14:51:58.555Z,1.77
2022-11-05T14:54:38.252Z,0.98
2022-11-05T14:57:05.524Z,1.70
2022-11-05T14:59:34.739Z,1.23
2022-11-05T15:02:03.991Z,1.30
2022-11-05T15:04:40.580Z,1.23
2022-11-05T15:07:07.733Z,0.98
2022-11-05T15:09:49.500Z,1.35
2022-11-05T15:12:35.506Z,1.65
2022-11-05T15:15:11.008Z,0.85
2022-11-05T15:17:41.047Z,1.10
2022-11-05T15:20:08.658Z,1.13
2022-11-05T15:22:41.170Z,1.10
2022-11-05T15:25:16.219Z,1.17
2022-11-05T15:27:43.404Z,1.13
2022-11-05T15:30:21.387Z,1.58
2022-11-05T15:32:48.836Z,1.42
2022-11-05T15:35:38.575Z,0.90
2022-11-05T15:38:19.185Z,1.38
2022-11-05T15:40:46.498Z,0.98
2022-11-05T15:43:21.049Z,1.20
2022-11-05T15:46:08.280Z,1.77
2022-11-05T15:48:36.465Z,1.20
2022-11-05T15:51:03.848Z,1.27
2022-11-05T15:56:27.572Z,1.38
2022-11-05T15:58:56.458Z,0.98
2022-11-05T16:01:31.243Z,1.20
2022-11-05T16:04:09.779Z,1.48
2022-11-05T16:06:39.272Z,1.33
2022-11-05T16:09:07.144Z,1.13
2022-11-05T16:11:34.354Z,0.88
2022-11-05T16:14:15.917Z,1.10
2022-11-05T16:16:43.511Z,0.95
2022-11-05T16:19:29.665Z,1.50
2022-11-05T16:21:56.878Z,0.85
2022-11-05T16:24:29.211Z,0.90
2022-11-05T16:27:02.678Z,1.33
2022-11-05T16:29:37.895Z,1.30
2022-11-05T16:32:07.351Z,1.48
2022-11-05T16:34:39.520Z,1.60
2022-11-05T16:37:07.734Z,1.90
2022-11-05T16:39:35.139Z,1.27
2022-11-05T16:42:02.350Z,1.67
2022-11-05T16:44:29.645Z,2.15
2022-11-05T16:46:56.931Z,1.80
2022-11-05T16:49:24.128Z,1.77
2022-11-05T16:51:51.470Z,1.48
2022-11-05T16:54:18.820Z,1.48
2022-11-05T16:56:47.367Z,1.90
2022-11-05T16:59:15.243Z,1.40
2022-11-05T17:01:43.186Z,1.75
2022-11-05T17:04:13.398Z,1.40
2022-11-05T17:06:40.709Z,0.98
2022-11-05T17:09:08.271Z,1.52
2022-11-05T17:11:36.766Z,1.63
2022-11-05T17:14:04.061Z,1.33
2022-11-05T17:16:32.385Z,1.30
2022-11-05T17:18:59.693Z,1.83
2022-11-05T17:21:28.736Z,1.60
2022-11-05T17:23:55.983Z,1.20
2022-11-05T17:26:23.333Z,1.33
2022-11-05T17:28:50.645Z,1.15
2022-11-05T17:31:17.918Z,1.50
2022-11-05T17:33:45.093Z,2.40
2022-11-05T17:36:13.971Z,2.83
2022-11-05T17:38:41.492Z,1.27
2022-11-05T17:41:12.996Z,1.63
2022-11-05T17:43:40.548Z,1.00
2022-11-05T17:46:09.031Z,2.95
2022-11-05T17:48:36.834Z,1.38
2022-11-05T17:51:04.522Z,1.98
2022-11-05T17:53:31.853Z,1.70
2022-11-05T17:55:59.153Z,1.05
2022-11-05T17:58:26.394Z,1.40
2022-11-05T18:00:53.640Z,2.33
2022-11-05T18:03:20.836Z,1.85
2022-11-05T18:05:48.092Z,1.70
2022-11-05T18:08:15.337Z,1.30
2022-11-05T18:10:42.857Z,1.67
2022-11-05T18:13:11.884Z,1.90
2022-11-05T18:15:41.074Z,3.25
2022-11-05T18:18:09.003Z,1.63
2022-11-05T18:20:36.470Z,2.30
2022-11-05T18:23:03.768Z,2.00
2022-11-05T18:25:31.031Z,1.40
2022-11-05T18:27:58.226Z,2.05
2022-11-05T18:30:25.431Z,2.00
2022-11-05T18:32:52.767Z,2.30
2022-11-05T18:35:20.132Z,2.05
2022-11-05T18:37:47.314Z,3.03
2022-11-05T18:40:14.510Z,2.90
2022-11-05T18:42:42.360Z,2.15
2022-11-05T18:45:10.168Z,2.97
2022-11-05T18:47:37.527Z,2.65
2022-11-05T18:50:05.947Z,4.68
2022-11-05T18:52:33.383Z,2.78
2022-11-05T18:55:00.651Z,7.55
2022-11-05T18:57:28.449Z,1.77
2022-11-05T18:59:55.676Z,2.40
2022-11-05T19:02:23.008Z,1.65
2022-11-05T19:05:22.047Z,2.10
2022-11-05T19:07:38.456Z,1.05
2022-11-05T19:10:05.946Z,1.95
2022-11-05T19:12:33.151Z,1.10
2022-11-05T19:15:02.767Z,1.30
2022-11-05T19:17:30.747Z,1.77
2022-11-05T19:19:58.432Z,1.58
2022-11-05T19:22:25.992Z,1.55
2022-11-05T19:24:53.370Z,2.00
2022-11-05T19:27:20.944Z,1.60
2022-11-05T19:29:48.286Z,1.98
2022-11-05T19:32:15.739Z,2.42
2022-11-05T19:34:43.002Z,1.90
2022-11-05T19:37:10.728Z,4.53
2022-11-05T19:39:39.053Z,2.03
2022-11-05T19:42:06.757Z,2.33
2022-11-05T19:44:34.017Z,2.55
2022-11-05T19:47:01.260Z,2.00
2022-11-05T19:49:28.523Z,1.85
2022-11-05T19:51:55.911Z,2.22
2022-11-05T19:54:23.173Z,1.63
2022-11-05T19:56:51.730Z,1.58
2022-11-05T19:59:18.974Z,2.08
2022-11-05T20:01:46.317Z,2.40
2022-11-05T20:04:13.692Z,1.92
2022-11-05T20:06:41.158Z,2.50
2022-11-05T20:09:22.961Z,1.95
2022-11-05T20:11:52.405Z,2.33
2022-11-05T20:14:19.709Z,1.95
2022-11-05T20:16:47.411Z,2.00
2022-11-05T20:19:16.449Z,1.55
2022-11-05T20:21:44.424Z,1.40
2022-11-05T20:24:12.217Z,2.40
2022-11-05T20:26:39.895Z,2.00
2022-11-05T20:29:07.080Z,2.03
2022-11-05T20:31:34.414Z,1.88
2022-11-05T20:34:01.827Z,3.03
2022-11-05T20:36:29.063Z,0.90
2022-11-05T20:39:02.691Z,0.90
2022-11-05T20:41:30.758Z,1.15
2022-11-05T20:43:57.970Z,1.58
2022-11-05T20:46:25.610Z,1.63
2022-11-05T20:48:52.900Z,1.40
2022-11-05T20:51:20.847Z,1.80
2022-11-05T20:53:48.817Z,1.40
2022-11-05T20:56:19.788Z,1.58
2022-11-05T20:58:47.395Z,1.40
2022-11-05T21:01:16.179Z,1.65
2022-11-05T21:03:44.247Z,1.42
2022-11-05T21:06:11.661Z,1.55
2022-11-05T21:08:38.942Z,2.15
2022-11-05T21:11:07.218Z,1.65
2022-11-05T21:13:34.564Z,2.55
2022-11-05T21:16:02.338Z,2.15
2022-11-05T21:18:31.178Z,2.80
2022-11-05T21:21:00.498Z,3.05
2022-11-05T21:23:28.616Z,2.13
2022-11-05T21:25:56.099Z,2.63
2022-11-05T21:28:23.299Z,1.80
2022-11-05T21:30:50.529Z,2.70
2022-11-05T21:33:19.104Z,2.10
2022-11-05T21:35:47.694Z,2.10
2022-11-05T21:38:16.149Z,3.00
2022-11-05T21:40:43.889Z,2.50
2022-11-05T21:43:11.121Z,3.65
2022-11-05T21:45:39.394Z,2.15
2022-11-05T21:48:07.022Z,2.58
2022-11-05T21:50:52.982Z,2.47
2022-11-05T21:53:39.795Z,2.92
2022-11-05T21:56:26.281Z,4.28
2022-11-05T21:59:12.426Z,2.75
2022-11-05T22:01:40.135Z,2.67
2022-11-05T22:04:07.516Z,2.10
2022-11-05T22:06:34.798Z,2.60
2022-11-05T22:09:02.025Z,3.30
2022-11-05T22:11:29.280Z,3.22
2022-11-05T22:13:56.628Z,2.72
2022-11-05T22:16:23.855Z,2.95
2022-11-05T22:18:51.222Z,4.10
2022-11-05T22:21:19.198Z,3.20
2022-11-05T22:23:46.422Z,3.33
2022-11-05T22:26:13.650Z,2.13
2022-11-05T22:28:40.825Z,2.40
2022-11-05T22:31:15.637Z,2.38
2022-11-05T22:33:43.279Z,2.20
2022-11-05T22:36:11.090Z,2.25
2022-11-05T22:38:38.301Z,2.53
2022-11-05T22:41:09.083Z,2.17
2022-11-05T22:43:36.699Z,2.70
2022-11-05T22:46:08.395Z,2.10
2022-11-05T22:48:36.348Z,3.58
2022-11-05T22:51:05.047Z,2.83
2022-11-05T22:53:32.795Z,1.95
2022-11-05T22:56:02.681Z,3.47
2022-11-05T22:58:29.943Z,2.60
2022-11-05T23:00:57.131Z,4.00
2022-11-05T23:03:27.989Z,3.00
2022-11-05T23:06:30.642Z,2.80
2022-11-05T23:09:17.231Z,2.75
2022-11-05T23:11:45.474Z,2.50
2022-11-05T23:14:14.188Z,2.03
2022-11-05T23:17:00.721Z,2.30
2022-11-05T23:19:46.796Z,2.28
2022-11-05T23:22:36.634Z,1.80
2022-11-05T23:25:04.649Z,2.58
2022-11-05T23:27:33.055Z,2.70
2022-11-05T23:30:01.268Z,1.88
2022-11-05T23:32:30.683Z,2.70
2022-11-05T23:34:58.736Z,2.03
2022-11-05T23:37:46.059Z,2.03
2022-11-05T23:40:15.479Z,2.10
2022-11-05T23:43:01.992Z,1.98
2022-11-05T23:45:47.842Z,0.98
2022-11-05T23:48:21.343Z,1.27
2022-11-05T23:50:50.978Z,1.80
2022-11-05T23:53:18.239Z,3.67
2022-11-05T23:55:45.678Z,1.63
2022-11-05T23:58:13.342Z,1.45
